| time (UTC) | temp C | wind direction | speed KPH | gust KPH | rain 1hr cm | rain 24hr cm | rain mn cm | humidity % | barometer mb |
| 20260905151713 | 21 | 238 | 14.5 | 22.5 | 0.00 | 0.00 | 0.00 | 60 | 993.6 |
| 20260905151312 | 21 | 233 | 11.3 | 16.1 | 0.00 | 0.00 | 0.00 | 61 | 993.6 |
| 20260905150910 | 20 | 231 | 9.7 | 16.1 | 0.00 | 0.00 | 0.00 | 61 | 993.6 |
| 20260905150509 | 20 | 245 | 12.9 | 22.5 | 0.00 | 0.00 | 0.00 | 61 | 993.6 |
| 20260905150109 | 21 | 228 | 14.5 | 19.3 | 0.00 | 0.00 | 0.00 | 61 | 993.5 |
| 20260905145709 | 21 | 244 | 9.7 | 16.1 | 0.00 | 0.00 | 0.00 | 61 | 993.5 |
| 20260905145308 | 21 | 244 | 11.3 | 16.1 | 0.00 | 0.00 | 0.00 | 62 | 993.5 |
| 20260905144906 | 21 | 239 | 19.3 | 24.1 | 0.00 | 0.00 | 0.00 | 61 | 993.5 |
| 20260905144506 | 21 | 233 | 12.9 | 24.1 | 0.00 | 0.00 | 0.00 | 61 | 993.5 |
| 20260905144106 | 21 | 248 | 14.5 | 22.5 | 0.00 | 0.00 | 0.00 | 60 | 993.5 |
| 20260905143706 | 21 | 261 | 11.3 | 17.7 | 0.00 | 0.00 | 0.00 | 61 | 993.5 |
| 20260905143306 | 21 | 252 | 9.7 | 14.5 | 0.00 | 0.00 | 0.00 | 61 | 993.5 |
| 20260905142904 | 21 | 253 | 16.1 | 25.7 | 0.00 | 0.00 | 0.00 | 61 | 993.5 |
| 20260905142504 | 21 | 243 | 16.1 | 20.9 | 0.00 | 0.00 | 0.00 | 61 | 993.5 |
| 20260905142104 | 21 | 248 | 9.7 | 16.1 | 0.00 | 0.00 | 0.00 | 61 | 993.5 |
| 20260905141704 | 21 | 246 | 11.3 | 16.1 | 0.00 | 0.00 | 0.00 | 61 | 993.5 |
| 20260905141304 | 21 | 245 | 12.9 | 19.3 | 0.00 | 0.00 | 0.00 | 61 | 993.5 |
| 20260905140902 | 20 | 257 | 11.3 | 16.1 | 0.00 | 0.00 | 0.00 | 62 | 993.5 |
| 20260905140459 | 20 | 243 | 12.9 | 20.9 | 0.00 | 0.00 | 0.00 | 62 | 993.5 |
| 20260905140059 | 21 | 249 | 16.1 | 22.5 | 0.00 | 0.00 | 0.00 | 62 | 993.5 |
| 20260905135659 | 21 | 262 | 16.1 | 22.5 | 0.00 | 0.00 | 0.00 | 62 | 993.5 |
| 20260905135259 | 21 | 257 | 11.3 | 17.7 | 0.00 | 0.00 | 0.00 | 62 | 993.4 |
| 20260905134857 | 21 | 248 | 12.9 | 17.7 | 0.00 | 0.00 | 0.00 | 61 | 993.4 |
| 20260905134457 | 21 | 265 | 17.7 | 25.7 | 0.00 | 0.00 | 0.00 | 60 | 993.5 |
| 20260905134058 | 21 | 240 | 14.5 | 25.7 | 0.00 | 0.00 | 0.00 | 60 | 993.4 |
| 20260905133656 | 21 | 246 | 17.7 | 25.7 | 0.00 | 0.00 | 0.00 | 60 | 993.4 |
| 20260905133256 | 21 | 260 | 22.5 | 29.0 | 0.00 | 0.00 | 0.00 | 59 | 993.5 |
| 20260905132854 | 21 | 249 | 16.1 | 20.9 | 0.00 | 0.00 | 0.00 | 60 | 993.5 |
| 20260905132454 | 21 | 262 | 20.9 | 27.4 | 0.00 | 0.00 | 0.00 | 59 | 993.5 |
| 20260905132055 | 21 | 265 | 19.3 | 25.7 | 0.00 | 0.00 | 0.00 | 60 | 993.6 |
| 20260905131654 | 21 | 249 | 16.1 | 30.6 | 0.00 | 0.00 | 0.00 | 60 | 993.6 |
| 20260905131254 | 21 | 258 | 22.5 | 29.0 | 0.00 | 0.00 | 0.00 | 60 | 993.6 |
| 20260905130452 | 21 | 251 | 16.1 | 20.9 | 0.00 | 0.00 | 0.00 | 62 | 993.6 |
| 20260905130052 | 21 | 246 | 17.7 | 24.1 | 0.00 | 0.00 | 0.00 | 62 | 807.9 |
| 20260905125646 | 21 | 255 | 19.3 | 25.7 | 0.00 | 0.00 | 0.00 | 61 | 993.7 |
| 20260905125438 | 21 | 255 | 19.3 | 25.7 | 0.00 | 0.00 | 0.00 | 61 | 993.7 |
| 20260905125039 | 21 | 254 | 20.9 | 25.7 | 0.00 | 0.00 | 0.00 | 60 | 993.7 |
| 20260905124639 | 21 | 265 | 22.5 | 30.6 | 0.00 | 0.00 | 0.00 | 60 | 993.8 |
| 20260905124239 | 21 | 251 | 20.9 | 29.0 | 0.00 | 0.00 | 0.00 | 60 | 993.9 |
| 20260905123837 | 21 | 260 | 22.5 | 35.4 | 0.00 | 0.00 | 0.00 | 61 | 993.8 |
| 20260905123437 | 21 | 254 | 22.5 | 32.2 | 0.00 | 0.00 | 0.00 | 61 | 993.9 |
| 20260905123037 | 21 | 252 | 17.7 | 25.7 | 0.00 | 0.00 | 0.00 | 60 | 993.8 |
| 20260905122627 | 21 | 272 | 20.9 | 30.6 | 0.00 | 0.00 | 0.00 | 60 | 993.9 |
| 20260905122226 | 21 | 271 | 22.5 | 30.6 | 0.00 | 0.00 | 0.00 | 61 | 993.9 |
| 20260905121823 | 21 | 251 | 16.1 | 22.5 | 0.00 | 0.00 | 0.00 | 62 | 993.9 |
| 20260905121422 | 21 | 243 | 16.1 | 20.9 | 0.00 | 0.00 | 0.00 | 61 | 993.9 |
| 20260905121104 | 21 | 240 | 17.7 | 25.7 | 0.00 | 0.00 | 0.00 | 62 | 993.8 |
| 20260905121022 | 21 | 240 | 17.7 | 25.7 | 0.00 | 0.00 | 0.00 | 62 | 993.8 |
| 20260905120623 | 20 | 261 | 17.7 | 25.7 | 0.00 | 0.00 | 0.00 | 61 | 993.9 |
| 20260905120222 | 20 | 243 | 20.9 | 32.2 | 0.00 | 0.00 | 0.00 | 61 | 993.9 |
| 20260905115820 | 20 | 248 | 14.5 | 29.0 | 0.00 | 0.00 | 0.00 | 64 | 993.8 |
| 20260905115420 | 20 | 219 | 16.1 | 27.4 | 0.00 | 0.00 | 0.00 | 63 | 993.8 |
| 20260905114620 | 20 | 224 | 16.1 | 25.7 | 0.00 | 0.00 | 0.00 | 65 | 993.9 |
| 20260905114219 | 20 | 240 | 14.5 | 20.9 | 0.00 | 0.00 | 0.00 | 65 | 993.9 |
| 20260905113817 | 20 | 227 | 16.1 | 25.7 | 0.00 | 0.00 | 0.00 | 64 | 993.9 |
| 20260905113417 | 20 | 225 | 14.5 | 25.7 | 0.00 | 0.00 | 0.00 | 64 | 993.8 |
| 20260905113017 | 20 | 250 | 14.5 | 22.5 | 0.00 | 0.00 | 0.00 | 65 | 993.9 |
| 20260905112618 | 20 | 247 | 16.1 | 24.1 | 0.00 | 0.00 | 0.00 | 65 | 993.9 |
| 20260905112218 | 20 | 251 | 17.7 | 25.7 | 0.00 | 0.00 | 0.00 | 65 | 993.9 |
| 20260905111815 | 20 | 260 | 19.3 | 27.4 | 0.00 | 0.00 | 0.00 | 65 | 993.9 |
| 20260905111012 | 20 | 266 | 17.7 | 29.0 | 0.00 | 0.00 | 0.00 | 65 | 993.8 |
| 20260905110612 | 20 | 276 | 19.3 | 25.7 | 0.00 | 0.00 | 0.00 | 65 | 993.8 |
| 20260905110212 | 20 | 263 | 16.1 | 22.5 | 0.00 | 0.00 | 0.00 | 65 | 993.8 |
| 20260905105810 | 20 | 251 | 24.1 | 30.6 | 0.00 | 0.00 | 0.00 | 64 | 993.7 |
| 20260905105411 | 20 | 234 | 14.5 | 22.5 | 0.00 | 0.00 | 0.00 | 65 | 993.5 |
| 20260905105111 | 20 | 248 | 17.7 | 32.2 | 0.00 | 0.00 | 0.00 | 64 | 993.6 |
| 20260905105011 | 20 | 248 | 17.7 | 32.2 | 0.00 | 0.00 | 0.00 | 64 | 993.6 |
| 20260905104610 | 20 | 238 | 19.3 | 33.8 | 0.00 | 0.00 | 0.00 | 64 | 993.5 |
| 20260905104210 | 20 | 235 | 20.9 | 30.6 | 0.00 | 0.00 | 0.00 | 64 | 993.6 |
| 20260905103808 | 20 | 241 | 17.7 | 27.4 | 0.00 | 0.00 | 0.00 | 65 | 993.7 |
| 20260905103408 | 20 | 263 | 22.5 | 30.6 | 0.00 | 0.00 | 0.00 | 65 | 993.7 |
| 20260905103008 | 20 | 240 | 19.3 | 35.4 | 0.00 | 0.00 | 0.00 | 65 | 993.7 |
| 20260905102608 | 20 | 238 | 24.1 | 33.8 | 0.00 | 0.00 | 0.00 | 65 | 993.7 |
| 20260905102208 | 20 | 260 | 22.5 | 32.2 | 0.00 | 0.00 | 0.00 | 66 | 993.8 |
| 20260905101806 | 20 | 251 | 22.5 | 32.2 | 0.00 | 0.00 | 0.00 | 66 | 993.8 |
| 20260905101406 | 20 | 257 | 22.5 | 37.0 | 0.00 | 0.00 | 0.00 | 67 | 993.8 |
| 20260905101006 | 20 | 248 | 22.5 | 29.0 | 0.00 | 0.00 | 0.00 | 66 | 808.0 |
| 20260905100352 | 20 | 251 | 25.7 | 38.6 | 0.00 | 0.00 | 0.00 | 66 | 993.8 |
| 20260905095952 | 19 | 269 | 24.1 | 30.6 | 0.00 | 0.00 | 0.00 | 66 | 993.8 |
| 20260905095552 | 19 | 253 | 29.0 | 48.3 | 0.00 | 0.00 | 0.00 | 65 | 993.9 |
| 20260905095153 | 19 | 246 | 29.0 | 41.8 | 0.00 | 0.00 | 0.00 | 65 | 994.0 |
| 20260905094751 | 19 | 266 | 27.4 | 38.6 | 0.00 | 0.00 | 0.00 | 65 | 994.0 |
| 20260905094350 | 19 | 251 | 27.4 | 35.4 | 0.00 | 0.00 | 0.00 | 65 | 993.9 |
| 20260905093950 | 19 | 268 | 25.7 | 43.5 | 0.00 | 0.00 | 0.00 | 65 | 994.0 |
| 20260905093541 | 19 | 273 | 27.4 | 37.0 | 0.00 | 0.00 | 0.00 | 65 | 994.0 |
| 20260905093140 | 19 | 269 | 27.4 | 38.6 | 0.00 | 0.00 | 0.00 | 66 | 994.1 |
| 20260905092737 | 19 | 247 | 22.5 | 35.4 | 0.00 | 0.00 | 0.00 | 67 | 994.1 |
| 20260905092336 | 19 | 258 | 25.7 | 40.2 | 0.00 | 0.00 | 0.00 | 66 | 994.0 |
| 20260905091936 | 19 | 263 | 38.6 | 49.9 | 0.00 | 0.00 | 0.00 | 67 | 994.1 |
| 20260905091536 | 19 | 247 | 25.7 | 38.6 | 0.00 | 0.00 | 0.00 | 69 | 994.0 |
| 20260905091135 | 19 | 261 | 27.4 | 38.6 | 0.00 | 0.00 | 0.00 | 71 | 994.0 |
| 20260905090334 | 19 | 259 | 20.9 | 27.4 | 0.00 | 0.00 | 0.00 | 73 | 993.9 |
| 20260905085934 | 18 | 251 | 16.1 | 27.4 | 0.00 | 0.00 | 0.00 | 73 | 993.8 |
| 20260905085534 | 18 | 250 | 24.1 | 32.2 | 0.00 | 0.00 | 0.00 | 73 | 993.9 |
| 20260905085133 | 18 | 250 | 19.3 | 29.0 | 0.00 | 0.00 | 0.00 | 75 | 993.9 |
| 20260905084731 | 18 | 248 | 22.5 | 35.4 | 0.00 | 0.00 | 0.00 | 75 | 993.9 |
| 20260905083931 | 18 | 254 | 25.7 | 32.2 | 0.00 | 0.00 | 0.00 | 75 | 993.8 |
| 20260905083531 | 18 | 254 | 25.7 | 35.4 | 0.00 | 0.00 | 0.00 | 75 | 993.7 |
| 20260905083131 | 18 | 237 | 22.5 | 40.2 | 0.00 | 0.00 | 0.00 | 76 | 993.6 |
| 20260905082327 | 18 | 260 | 27.4 | 32.2 | 0.00 | 0.00 | 0.00 | 77 | 993.6 |
| 20260905081926 | 18 | 256 | 17.7 | 27.4 | 0.00 | 0.00 | 0.00 | 78 | 993.6 |
| 20260905081526 | 18 | 240 | 17.7 | 30.6 | 0.00 | 0.00 | 0.00 | 79 | 993.5 |
| 20260905081126 | 18 | 242 | 14.5 | 22.5 | 0.00 | 0.00 | 0.00 | 79 | 993.5 |
| 20260905080724 | 18 | 238 | 19.3 | 29.0 | 0.00 | 0.00 | 0.00 | 79 | 993.4 |
| 20260905080324 | 18 | 247 | 19.3 | 29.0 | 0.00 | 0.00 | 0.00 | 81 | 993.5 |
| 20260905075925 | 17 | 237 | 19.3 | 30.6 | 0.00 | 0.00 | 0.00 | 81 | 993.4 |
| 20260905075524 | 17 | 235 | 12.9 | 17.7 | 0.00 | 0.00 | 0.00 | 83 | 993.4 |
| 20260905075124 | 17 | 238 | 19.3 | 32.2 | 0.00 | 0.00 | 0.00 | 83 | 993.4 |
| 20260905074722 | 17 | 246 | 17.7 | 33.8 | 0.00 | 0.00 | 0.00 | 86 | 993.4 |
| 20260905074322 | 17 | 247 | 20.9 | 32.2 | 0.00 | 0.00 | 0.00 | 86 | 993.4 |
| 20260905073922 | 17 | 254 | 14.5 | 19.3 | 0.00 | 0.00 | 0.00 | 87 | 993.2 |
| 20260905073521 | 17 | 242 | 20.9 | 27.4 | 0.00 | 0.00 | 0.00 | 87 | 993.2 |
| 20260905073121 | 17 | 237 | 17.7 | 27.4 | 0.00 | 0.00 | 0.00 | 90 | 993.2 |
| 20260905072719 | 17 | 252 | 16.1 | 25.7 | 0.00 | 0.00 | 0.00 | 91 | 993.2 |
| 20260905072319 | 17 | 223 | 14.5 | 25.7 | 0.00 | 0.00 | 0.00 | 93 | 993.1 |
| 20260905071919 | 17 | 224 | 14.5 | 24.1 | 0.00 | 0.00 | 0.00 | 94 | 807.7 |
| 20260905071710 | 17 | 237 | 14.5 | 25.7 | 0.00 | 0.00 | 0.00 | 93 | 993.1 |
| 20260905071307 | 17 | 225 | 16.1 | 24.1 | 0.00 | 0.00 | 0.00 | 95 | 993.1 |
| 20260905070906 | 17 | 219 | 12.9 | 20.9 | 0.00 | 0.00 | 0.00 | 96 | 993.0 |
| 20260905070506 | 16 | 226 | 11.3 | 16.1 | 0.00 | 0.00 | 0.00 | 97 | 993.0 |
| 20260905070105 | 16 | 220 | 16.1 | 20.9 | 0.00 | 0.00 | 0.00 | 97 | 992.9 |
| 20260905065703 | 16 | 230 | 12.9 | 19.3 | 0.00 | 0.00 | 0.00 | 97 | 993.0 |
| 20260905065306 | 16 | 228 | 9.7 | 19.3 | 0.00 | 0.00 | 0.00 | 98 | 992.9 |
| 20260905064903 | 16 | 221 | 9.7 | 19.3 | 0.00 | 0.00 | 0.00 | 98 | 992.8 |
| 20260905064503 | 16 | 224 | 9.7 | 16.1 | 0.00 | 0.00 | 0.00 | 99 | 992.8 |
| 20260905064103 | 16 | 223 | 9.7 | 12.9 | 0.00 | 0.00 | 0.00 | 99 | 992.7 |
| 20260905063701 | 16 | 217 | 8.0 | 12.9 | 0.00 | 0.00 | 0.00 | 99 | 992.7 |
| 20260905063301 | 16 | 227 | 6.4 | 9.7 | 0.00 | 0.00 | 0.00 | 99 | 992.7 |
| 20260905062901 | 16 | 239 | 6.4 | 9.7 | 0.00 | 0.00 | 0.00 | 99 | 992.5 |
| 20260905062502 | 16 | 231 | 6.4 | 11.3 | 0.00 | 0.00 | 0.00 | 99 | 992.5 |
| 20260905062102 | 16 | 226 | 6.4 | 12.9 | 0.00 | 0.00 | 0.00 | 99 | 992.5 |
| 20260905061700 | 16 | 231 | 8.0 | 12.9 | 0.00 | 0.00 | 0.00 | 99 | 992.5 |
| 20260905061301 | 16 | 234 | 8.0 | 12.9 | 0.00 | 0.00 | 0.00 | 99 | 992.4 |
| 20260905060900 | 16 | 236 | 8.0 | 12.9 | 0.00 | 0.00 | 0.00 | 99 | 992.4 |
| 20260905060457 | 16 | 228 | 8.0 | 11.3 | 0.00 | 0.00 | 0.00 | 98 | 992.4 |
| 20260905060057 | 16 | 222 | 9.7 | 14.5 | 0.00 | 0.00 | 0.00 | 98 | 992.4 |
| 20260905055656 | 16 | 232 | 12.9 | 20.9 | 0.00 | 0.00 | 0.00 | 98 | 992.3 |
| 20260905055256 | 16 | 234 | 9.7 | 16.1 | 0.00 | 0.00 | 0.00 | 98 | 992.2 |
| 20260905054856 | 16 | 236 | 11.3 | 16.1 | 0.00 | 0.00 | 0.00 | 98 | 992.1 |
| 20260905054456 | 16 | 233 | 14.5 | 19.3 | 0.00 | 0.00 | 0.00 | 98 | 992.1 |
| 20260905054056 | 16 | 236 | 16.1 | 20.9 | 0.00 | 0.00 | 0.00 | 99 | 992.1 |
| 20260905053654 | 16 | 237 | 14.5 | 20.9 | 0.00 | 0.00 | 0.00 | 99 | 992.2 |
| 20260905053254 | 16 | 236 | 12.9 | 19.3 | 0.00 | 0.00 | 0.00 | 30 | 992.1 |
| 20260905052851 | 16 | 229 | 9.7 | 12.9 | 0.00 | 0.00 | 0.00 | 30 | 992.1 |
| 20260905052452 | 16 | 237 | 8.0 | 14.5 | 0.00 | 0.00 | 0.00 | 30 | 992.1 |
| 20260905052052 | 16 | 238 | 9.7 | 14.5 | 0.00 | 0.00 | 0.00 | 30 | 992.0 |
| 20260905051650 | 16 | 241 | 9.7 | 14.5 | 0.00 | 0.00 | 0.00 | 30 | 992.0 |
| 20260905051250 | 16 | 241 | 11.3 | 16.1 | 0.00 | 0.00 | 0.00 | 30 | 992.0 |
| 20260905050850 | 16 | 239 | 16.1 | 25.7 | 0.00 | 0.00 | 0.00 | 30 | 991.9 |
| 20260905050450 | 16 | 239 | 11.3 | 17.7 | 0.00 | 0.00 | 0.00 | 30 | 991.9 |
| 20260905050050 | 16 | 236 | 12.9 | 20.9 | 0.00 | 0.00 | 0.00 | 30 | 991.8 |
| 20260905045648 | 16 | 240 | 14.5 | 20.9 | 0.00 | 0.00 | 0.00 | 30 | 991.8 |
| 20260905045245 | 16 | 237 | 14.5 | 20.9 | 0.00 | 0.00 | 0.00 | 30 | 991.7 |
| 20260905044845 | 16 | 245 | 9.7 | 14.5 | 0.00 | 0.00 | 0.00 | 30 | 991.9 |
| 20260905044438 | 16 | 238 | 12.9 | 19.3 | 0.00 | 0.00 | 0.00 | 30 | 991.8 |
| 20260905044037 | 16 | 243 | 14.5 | 22.5 | 0.00 | 0.00 | 0.00 | 30 | 991.6 |
| 20260905043634 | 16 | 224 | 11.3 | 19.3 | 0.00 | 0.00 | 0.00 | 30 | 991.5 |
| 20260905043233 | 15 | 234 | 11.3 | 19.3 | 0.00 | 0.00 | 0.00 | 30 | 991.6 |
| 20260905042833 | 15 | 234 | 8.0 | 14.5 | 0.00 | 0.00 | 0.00 | 30 | 991.6 |
| 20260905042433 | 15 | 229 | 11.3 | 16.1 | 0.00 | 0.00 | 0.00 | 30 | 991.8 |
| 20260905042033 | 15 | 220 | 12.9 | 20.9 | 0.00 | 0.00 | 0.00 | 30 | 991.7 |
| 20260905041631 | 15 | 223 | 11.3 | 19.3 | 0.00 | 0.00 | 0.00 | 30 | 991.7 |
| 20260905041230 | 15 | 229 | 8.0 | 11.3 | 0.00 | 0.00 | 0.00 | 30 | 991.6 |
| 20260905040830 | 16 | 225 | 12.9 | 17.7 | 0.00 | 0.00 | 0.00 | 30 | 991.5 |
| 20260905040430 | 16 | 225 | 9.7 | 17.7 | 0.00 | 0.00 | 0.00 | 31 | 991.4 |
| 20260905040030 | 16 | 228 | 9.7 | 14.5 | 0.00 | 0.00 | 0.00 | 30 | 991.4 |
| 20260905035628 | 16 | 235 | 12.9 | 17.7 | 0.00 | 0.00 | 0.00 | 31 | 991.4 |
| 20260905035228 | 16 | 241 | 9.7 | 14.5 | 0.00 | 0.00 | 0.00 | 31 | 991.4 |
| 20260905034828 | 16 | 234 | 12.9 | 17.7 | 0.00 | 0.00 | 0.00 | 31 | 991.4 |
| 20260905034426 | 16 | 236 | 12.9 | 19.3 | 0.00 | 0.00 | 0.00 | 31 | 991.3 |
| 20260905034026 | 16 | 234 | 14.5 | 19.3 | 0.00 | 0.00 | 0.00 | 31 | 991.3 |
| 20260905033624 | 16 | 239 | 12.9 | 19.3 | 0.00 | 0.00 | 0.00 | 31 | 991.4 |
| 20260905033224 | 16 | 233 | 12.9 | 20.9 | 0.00 | 0.00 | 0.00 | 31 | 991.3 |
| 20260905032824 | 16 | 232 | 12.9 | 17.7 | 0.00 | 0.00 | 0.00 | 31 | 991.2 |
| 20260905032424 | 16 | 228 | 9.7 | 12.9 | 0.00 | 0.00 | 0.00 | 31 | 990.9 |
| 20260905032024 | 16 | 215 | 12.9 | 25.7 | 0.00 | 0.00 | 0.00 | 31 | 990.8 |
| 20260905031622 | 16 | 219 | 8.0 | 14.5 | 0.00 | 0.00 | 0.00 | 31 | 990.8 |
| 20260905031222 | 16 | 235 | 12.9 | 17.7 | 0.00 | 0.00 | 0.00 | 31 | 990.8 |
| 20260905030820 | 16 | 231 | 11.3 | 16.1 | 0.00 | 0.00 | 0.00 | 32 | 990.8 |
| 20260905030420 | 16 | 234 | 12.9 | 19.3 | 0.00 | 0.00 | 0.00 | 32 | 990.7 |
| 20260905030020 | 16 | 227 | 11.3 | 17.7 | 0.00 | 0.00 | 0.00 | 32 | 990.7 |
| 20260905025618 | 16 | 218 | 16.1 | 19.3 | 0.00 | 0.00 | 0.00 | 32 | 990.5 |
| 20260905025218 | 16 | 230 | 12.9 | 16.1 | 0.00 | 0.00 | 0.00 | 32 | 990.7 |
| 20260905024818 | 16 | 226 | 9.7 | 11.3 | 0.00 | 0.00 | 0.00 | 32 | 990.4 |
| 20260905024418 | 16 | 223 | 6.4 | 11.3 | 0.00 | 0.00 | 0.00 | 32 | 990.0 |
| 20260905024018 | 16 | 233 | 6.4 | 9.7 | 0.00 | 0.00 | 0.00 | 32 | 990.1 |
| 20260905023616 | 16 | 227 | 8.0 | 14.5 | 0.00 | 0.00 | 0.00 | 32 | 990.3 |
| 20260905023214 | 16 | 227 | 8.0 | 16.1 | 0.00 | 0.00 | 0.00 | 32 | 990.3 |
| 20260905022814 | 16 | 218 | 11.3 | 14.5 | 0.00 | 0.00 | 0.00 | 32 | 990.3 |
| 20260905022414 | 16 | 216 | 9.7 | 12.9 | 0.00 | 0.00 | 0.00 | 32 | 990.2 |
| 20260905022014 | 16 | 220 | 9.7 | 16.1 | 0.00 | 0.00 | 0.00 | 32 | 990.3 |
| 20260905021605 | 16 | 224 | 9.7 | 12.9 | 0.00 | 0.00 | 0.00 | 990.2 | |
| 20260905021203 | 16 | 215 | 12.9 | 16.1 | 0.00 | 0.00 | 0.00 | 32 | 990.0 |
| 20260905020802 | 16 | 215 | 9.7 | 16.1 | 0.00 | 0.00 | 0.00 | 32 | 990.0 |
| 20260905020401 | 16 | 206 | 9.7 | 12.9 | 0.00 | 0.00 | 0.00 | 32 | 989.9 |
| 20260905020001 | 16 | 211 | 12.9 | 16.1 | 0.00 | 0.00 | 0.00 | 32 | 989.9 |
| 20260905015559 | 16 | 207 | 11.3 | 17.7 | 0.00 | 0.00 | 0.00 | 32 | 989.8 |
| 20260905015200 | 16 | 211 | 8.0 | 12.9 | 0.00 | 0.00 | 0.00 | 32 | 989.8 |
| 20260905014800 | 16 | 217 | 9.7 | 12.9 | 0.00 | 0.00 | 0.00 | 32 | 990.0 |
| 20260905014400 | 16 | 222 | 9.7 | 14.5 | 0.00 | 0.00 | 0.00 | 32 | 990.0 |
| 20260905014000 | 16 | 219 | 9.7 | 12.9 | 0.00 | 0.00 | 0.00 | 32 | 990.2 |
| 20260905013558 | 16 | 216 | 12.9 | 19.3 | 0.00 | 0.00 | 0.00 | 32 | 990.3 |
| 20260905013158 | 16 | 213 | 12.9 | 19.3 | 0.00 | 0.00 | 0.00 | 32 | 990.3 |
| 20260905012758 | 16 | 223 | 9.7 | 16.1 | 0.00 | 0.00 | 0.00 | 32 | 990.3 |
| 20260905012356 | 16 | 228 | 9.7 | 14.5 | 0.00 | 0.00 | 0.00 | 32 | 990.3 |
| 20260905011956 | 16 | 241 | 9.7 | 16.1 | 0.00 | 0.00 | 0.00 | 32 | 990.4 |
| 20260905011554 | 16 | 243 | 12.9 | 19.3 | 0.00 | 0.00 | 0.00 | 32 | 990.6 |
| 20260905011153 | 16 | 240 | 14.5 | 16.1 | 0.00 | 0.00 | 0.00 | 32 | 990.6 |
| 20260905010753 | 16 | 234 | 9.7 | 17.7 | 0.00 | 0.00 | 0.00 | 32 | 990.4 |
| 20260905010353 | 16 | 238 | 12.9 | 19.3 | 0.00 | 0.00 | 0.00 | 32 | 990.4 |
| 20260905005953 | 16 | 241 | 11.3 | 16.1 | 0.00 | 0.00 | 0.00 | 32 | 990.4 |
| 20260905005551 | 16 | 238 | 12.9 | 17.7 | 0.00 | 0.00 | 0.00 | 32 | 990.7 |
| 20260905005151 | 16 | 242 | 16.1 | 25.7 | 0.00 | 0.00 | 0.00 | 32 | 990.6 |
| 20260905004750 | 16 | 250 | 16.1 | 29.0 | 0.00 | 0.00 | 0.00 | 31 | 990.3 |
| 20260905004351 | 16 | 240 | 12.9 | 19.3 | 0.00 | 0.00 | 0.00 | 31 | 990.3 |
| 20260905003951 | 16 | 239 | 12.9 | 17.7 | 0.00 | 0.00 | 0.00 | 31 | 990.3 |
| 20260905003549 | 16 | 225 | 14.5 | 22.5 | 0.00 | 0.00 | 0.00 | 31 | 990.0 |
| 20260905003249 | 16 | 220 | 9.7 | 14.5 | 0.00 | 0.00 | 0.00 | 31 | 989.9 |
| 20260905003149 | 16 | 220 | 9.7 | 14.5 | 0.00 | 0.00 | 0.00 | 31 | 989.9 |
| 20260905002748 | 16 | 222 | 9.7 | 16.1 | 0.00 | 0.00 | 0.00 | 31 | 990.0 |
| 20260905002348 | 16 | 234 | 9.7 | 14.5 | 0.00 | 0.00 | 0.00 | 31 | 989.9 |
| 20260905001948 | 16 | 227 | 12.9 | 20.9 | 0.00 | 0.00 | 0.00 | 31 | 990.0 |
| 20260905001546 | 16 | 230 | 12.9 | 22.5 | 0.00 | 0.00 | 0.00 | 31 | 989.9 |
| 20260905001144 | 16 | 233 | 11.3 | 17.7 | 0.00 | 0.00 | 0.00 | 31 | 989.9 |
| 20260905000745 | 17 | 225 | 11.3 | 20.9 | 0.00 | 0.00 | 0.00 | 31 | 989.8 |
| 20260905000344 | 17 | 231 | 12.9 | 17.7 | 0.00 | 0.00 | 0.00 | 31 | 989.9 |
| 20260904235944 | 17 | 225 | 16.1 | 27.4 | 0.00 | 0.00 | 0.00 | 31 | 989.9 |
| 20260904235542 | 17 | 248 | 16.1 | 22.5 | 0.00 | 0.00 | 0.00 | 31 | 989.8 |
| 20260904235142 | 17 | 239 | 11.3 | 22.5 | 0.00 | 0.00 | 0.00 | 30 | 989.8 |
| 20260904234742 | 17 | 234 | 16.1 | 29.0 | 0.00 | 0.00 | 0.00 | 30 | 989.7 |
| 20260904234335 | 17 | 220 | 12.9 | 17.7 | 0.00 | 0.00 | 0.00 | 30 | 989.4 |
| 20260904233934 | 17 | 215 | 12.9 | 19.3 | 0.00 | 0.00 | 0.00 | 30 | 989.5 |
| 20260904233530 | 17 | 212 | 11.3 | 16.1 | 0.00 | 0.00 | 0.00 | 30 | 989.5 |
| 20260904233129 | 17 | 205 | 14.5 | 19.3 | 0.00 | 0.00 | 0.00 | 30 | 989.6 |
| 20260904232729 | 17 | 210 | 14.5 | 22.5 | 0.00 | 0.00 | 0.00 | 99 | 989.4 |
| 20260904232329 | 17 | 215 | 11.3 | 17.7 | 0.00 | 0.00 | 0.00 | 99 | 989.5 |
| 20260904231929 | 17 | 224 | 9.7 | 14.5 | 0.00 | 0.00 | 0.00 | 97 | 989.2 |
| 20260904231527 | 17 | 213 | 9.7 | 14.5 | 0.00 | 0.00 | 0.00 | 96 | 989.2 |
| 20260904231127 | 18 | 215 | 8.0 | 12.9 | 0.00 | 0.00 | 0.00 | 95 | 989.2 |
| 20260904230728 | 18 | 228 | 9.7 | 12.9 | 0.00 | 0.00 | 0.00 | 94 | 989.3 |
| 20260904230325 | 18 | 241 | 12.9 | 20.9 | 0.00 | 0.00 | 0.00 | 93 | 989.5 |
| 20260904225924 | 18 | 241 | 14.5 | 20.9 | 0.00 | 0.00 | 0.00 | 91 | 989.5 |
| 20260904225523 | 18 | 242 | 16.1 | 24.1 | 0.00 | 0.00 | 0.00 | 89 | 989.7 |
| 20260904225123 | 19 | 238 | 14.5 | 17.7 | 0.00 | 0.00 | 0.00 | 86 | 989.7 |
| 20260904224723 | 19 | 249 | 11.3 | 16.1 | 0.00 | 0.00 | 0.00 | 85 | 989.2 |
| 20260904224323 | 19 | 247 | 9.7 | 14.5 | 0.00 | 0.00 | 0.00 | 84 | 989.0 |
| 20260904223922 | 19 | 248 | 16.1 | 27.4 | 0.00 | 0.00 | 0.00 | 84 | 989.2 |
| 20260904223520 | 19 | 249 | 12.9 | 20.9 | 0.00 | 0.00 | 0.00 | 84 | 989.2 |
| 20260904223120 | 19 | 246 | 16.1 | 22.5 | 0.00 | 0.00 | 0.00 | 84 | 989.1 |
| 20260904222720 | 19 | 253 | 16.1 | 20.9 | 0.00 | 0.00 | 0.00 | 85 | 989.0 |
| 20260904222320 | 19 | 257 | 17.7 | 25.7 | 0.00 | 0.00 | 0.00 | 85 | 988.9 |
| 20260904221919 | 19 | 257 | 22.5 | 25.7 | 0.00 | 0.00 | 0.00 | 85 | 988.9 |
| 20260904221518 | 19 | 269 | 17.7 | 24.1 | 0.00 | 0.00 | 0.00 | 84 | 988.9 |
| 20260904221118 | 20 | 259 | 22.5 | 32.2 | 0.00 | 0.00 | 0.00 | 83 | 989.1 |
| 20260904220718 | 20 | 266 | 17.7 | 25.7 | 0.00 | 0.00 | 0.00 | 81 | 988.8 |
| 20260904220318 | 20 | 261 | 27.4 | 37.0 | 0.00 | 0.00 | 0.00 | 79 | 988.9 |
| 20260904215917 | 20 | 262 | 24.1 | 40.2 | 0.00 | 0.00 | 0.00 | 77 | 988.7 |
| 20260904215515 | 20 | 277 | 27.4 | 40.2 | 0.00 | 0.00 | 0.00 | 77 | 988.7 |
| 20260904215113 | 20 | 277 | 20.9 | 29.0 | 0.00 | 0.00 | 0.00 | 76 | 988.5 |
| 20260904214712 | 20 | 271 | 24.1 | 30.6 | 0.00 | 0.00 | 0.00 | 76 | 988.5 |
| 20260904214313 | 20 | 271 | 20.9 | 27.4 | 0.00 | 0.00 | 0.00 | 75 | 988.4 |
| 20260904213912 | 20 | 278 | 25.7 | 32.2 | 0.00 | 0.00 | 0.00 | 75 | 988.4 |
| 20260904213511 | 20 | 276 | 20.9 | 30.6 | 0.00 | 0.00 | 0.00 | 74 | 988.4 |
| 20260904213111 | 20 | 270 | 24.1 | 35.4 | 0.00 | 0.00 | 0.00 | 74 | 988.3 |
| 20260904212710 | 20 | 277 | 25.7 | 38.6 | 0.00 | 0.00 | 0.00 | 73 | 988.2 |
| 20260904212310 | 20 | 278 | 25.7 | 30.6 | 0.00 | 0.00 | 0.00 | 74 | 988.3 |
| 20260904211910 | 20 | 276 | 22.5 | 29.0 | 0.00 | 0.00 | 0.00 | 74 | 988.4 |
| 20260904211500 | 20 | 275 | 20.9 | 32.2 | 0.00 | 0.00 | 0.00 | 74 | 988.5 |
| 20260904211100 | 21 | 266 | 24.1 | 37.0 | 0.00 | 0.00 | 0.00 | 74 | 988.5 |
| 20260904210659 | 21 | 281 | 27.4 | 38.6 | 0.00 | 0.00 | 0.00 | 75 | 988.5 |
| 20260904210258 | 21 | 272 | 29.0 | 40.2 | 0.00 | 0.00 | 0.00 | 75 | 988.5 |
| 20260904205858 | 21 | 279 | 29.0 | 38.6 | 0.00 | 0.00 | 0.00 | 74 | 988.4 |
| 20260904205456 | 21 | 269 | 33.8 | 45.1 | 0.00 | 0.00 | 0.00 | 75 | 988.4 |
| 20260904205056 | 21 | 263 | 38.6 | 51.5 | 0.00 | 0.00 | 0.00 | 76 | 988.3 |
| 20260904204656 | 22 | 284 | 37.0 | 48.3 | 0.00 | 0.00 | 0.00 | 77 | 988.0 |
| 20260904204254 | 22 | 272 | 30.6 | 49.9 | 0.00 | 0.00 | 0.00 | 78 | 987.9 |
| 20260904203854 | 22 | 261 | 19.3 | 32.2 | 0.00 | 0.00 | 0.00 | 79 | 987.7 |
| 20260904203452 | 22 | 264 | 19.3 | 30.6 | 0.00 | 0.00 | 0.00 | 78 | 987.5 |
| 20260904203052 | 22 | 269 | 30.6 | 38.6 | 0.00 | 0.00 | 0.00 | 78 | 987.3 |
| 20260904202652 | 22 | 272 | 25.7 | 37.0 | 0.00 | 0.00 | 0.00 | 77 | 987.4 |
| 20260904202252 | 22 | 269 | 25.7 | 37.0 | 0.00 | 0.00 | 0.00 | 76 | 987.5 |
| 20260904201852 | 23 | 261 | 29.0 | 41.8 | 0.00 | 0.00 | 0.00 | 76 | 987.4 |
| 20260904201450 | 23 | 263 | 22.5 | 32.2 | 0.00 | 0.00 | 0.00 | 75 | 987.2 |
| 20260904201050 | 23 | 262 | 20.9 | 27.4 | 0.00 | 0.00 | 0.00 | 75 | 987.1 |
| 20260904200650 | 23 | 271 | 20.9 | 33.8 | 0.00 | 0.00 | 0.00 | 75 | 987.1 |
| 20260904200250 | 23 | 267 | 20.9 | 32.2 | 0.00 | 0.00 | 0.00 | 76 | 987.1 |
| 20260904195850 | 23 | 268 | 32.2 | 51.5 | 0.00 | 0.00 | 0.00 | 75 | 986.9 |
| 20260904195048 | 23 | 233 | 9.7 | 12.9 | 0.00 | 0.00 | 0.00 | 71 | 985.8 |
| 20260904194648 | 23 | 197 | 12.9 | 19.3 | 0.00 | 0.00 | 0.00 | 71 | 985.5 |
| 20260904194249 | 23 | 188 | 8.0 | 14.5 | 0.00 | 0.00 | 0.00 | 71 | 985.3 |
| 20260904193848 | 23 | 184 | 8.0 | 16.1 | 0.00 | 0.00 | 0.00 | 71 | 985.3 |
| 20260904193446 | 23 | 164 | 9.7 | 14.5 | 0.00 | 0.00 | 0.00 | 71 | 985.4 |
| 20260904193044 | 23 | 168 | 8.0 | 16.1 | 0.00 | 0.00 | 0.00 | 72 | 985.5 |
| 20260904192644 | 23 | 162 | 6.4 | 11.3 | 0.00 | 0.00 | 0.00 | 72 | 985.6 |
| 20260904192244 | 23 | 175 | 9.7 | 14.5 | 0.00 | 0.00 | 0.00 | 72 | 985.6 |
| 20260904191844 | 23 | 176 | 6.4 | 16.1 | 0.00 | 0.00 | 0.00 | 72 | 985.6 |
| 20260904191442 | 23 | 171 | 6.4 | 12.9 | 0.00 | 0.00 | 0.00 | 72 | 985.7 |
| 20260904191042 | 22 | 182 | 8.0 | 14.5 | 0.00 | 0.00 | 0.00 | 72 | 985.7 |
| 20260904190642 | 22 | 179 | 6.4 | 11.3 | 0.00 | 0.00 | 0.00 | 72 | 985.7 |
| 20260904190242 | 22 | 187 | 8.0 | 14.5 | 0.00 | 0.00 | 0.00 | 73 | 985.7 |
| 20260904185842 | 22 | 184 | 9.7 | 14.5 | 0.00 | 0.00 | 0.00 | 73 | 985.7 |
| 20260904185441 | 22 | 184 | 4.8 | 9.7 | 0.00 | 0.00 | 0.00 | 73 | 985.6 |
| 20260904185041 | 22 | 178 | 4.8 | 11.3 | 0.00 | 0.00 | 0.00 | 73 | 985.6 |
| 20260904184641 | 22 | 192 | 6.4 | 9.7 | 0.00 | 0.00 | 0.00 | 73 | 985.6 |
| 20260904184233 | 22 | 187 | 8.0 | 12.9 | 0.00 | 0.00 | 0.00 | 73 | 985.6 |
| 20260904183832 | 22 | 171 | 8.0 | 16.1 | 0.00 | 0.00 | 0.00 | 73 | 985.5 |
| 20260904183430 | 22 | 178 | 6.4 | 12.9 | 0.00 | 0.00 | 0.00 | 73 | 985.5 |
| 20260904183029 | 22 | 180 | 6.4 | 11.3 | 0.00 | 0.00 | 0.00 | 73 | 985.5 |
| 20260904182629 | 22 | 185 | 4.8 | 9.7 | 0.00 | 0.00 | 0.00 | 73 | 985.5 |
| 20260904182226 | 22 | 170 | 8.0 | 12.9 | 0.00 | 0.00 | 0.00 | 73 | 985.6 |
| 20260904181826 | 22 | 145 | 6.4 | 11.3 | 0.00 | 0.00 | 0.00 | 73 | 985.7 |
| 20260904181424 | 22 | 176 | 4.8 | 9.7 | 0.00 | 0.00 | 0.00 | 73 | 985.9 |
| 20260904181024 | 22 | 149 | 3.2 | 8.0 | 0.00 | 0.00 | 0.00 | 73 | 986.0 |
| 20260904180624 | 22 | 134 | 4.8 | 8.0 | 0.00 | 0.00 | 0.00 | 73 | 986.1 |
| 20260904180225 | 22 | 140 | 3.2 | 4.8 | 0.00 | 0.00 | 0.00 | 73 | 986.1 |
| 20260904175825 | 23 | 130 | 4.8 | 6.4 | 0.00 | 0.00 | 0.00 | 73 | 986.2 |
| 20260904175423 | 23 | 126 | 3.2 | 4.8 | 0.00 | 0.00 | 0.00 | 72 | 986.3 |
| 20260904175023 | 23 | 130 | 4.8 | 6.4 | 0.00 | 0.00 | 0.00 | 72 | 986.3 |
| 20260904174623 | 23 | 132 | 3.2 | 6.4 | 0.00 | 0.00 | 0.00 | 72 | 986.3 |
| 20260904174223 | 23 | 135 | 3.2 | 4.8 | 0.00 | 0.00 | 0.00 | 72 | 986.4 |
| 20260904173823 | 23 | 136 | 3.2 | 6.4 | 0.00 | 0.00 | 0.00 | 72 | 986.4 |
| 20260904173421 | 23 | 133 | 3.2 | 4.8 | 0.00 | 0.00 | 0.00 | 71 | 986.4 |
| 20260904173021 | 23 | 141 | 3.2 | 6.4 | 0.00 | 0.00 | 0.00 | 71 | 986.4 |
| 20260904172621 | 23 | 154 | 4.8 | 9.7 | 0.00 | 0.00 | 0.00 | 71 | 986.4 |
| 20260904171821 | 23 | 177 | 6.4 | 9.7 | 0.00 | 0.00 | 0.00 | 71 | 986.4 |
| 20260904171419 | 23 | 186 | 4.8 | 8.0 | 0.00 | 0.00 | 0.00 | 71 | 986.4 |
| 20260904171017 | 23 | 185 | 4.8 | 11.3 | 0.00 | 0.00 | 0.00 | 71 | 986.4 |
| 20260904170617 | 23 | 201 | 6.4 | 11.3 | 0.00 | 0.00 | 0.00 | 71 | 986.4 |
| 20260904170217 | 23 | 207 | 4.8 | 8.0 | 0.00 | 0.00 | 0.00 | 70 | 986.4 |
| 20260904165817 | 23 | 208 | 4.8 | 9.7 | 0.00 | 0.00 | 0.00 | 70 | 986.3 |
| 20260904165415 | 23 | 204 | 6.4 | 9.7 | 0.00 | 0.00 | 0.00 | 70 | 986.3 |
| 20260904165015 | 24 | 216 | 8.0 | 11.3 | 0.00 | 0.00 | 0.00 | 70 | 986.3 |
| 20260904164615 | 24 | 213 | 8.0 | 11.3 | 0.00 | 0.00 | 0.00 | 70 | 986.3 |
| 20260904164215 | 24 | 214 | 6.4 | 12.9 | 0.00 | 0.00 | 0.00 | 70 | 986.2 |
| 20260904163815 | 24 | 207 | 11.3 | 16.1 | 0.00 | 0.00 | 0.00 | 70 | 986.2 |
| 20260904163413 | 24 | 199 | 8.0 | 9.7 | 0.00 | 0.00 | 0.00 | 69 | 986.2 |
| 20260904163013 | 24 | 205 | 9.7 | 19.3 | 0.00 | 0.00 | 0.00 | 69 | 986.3 |
| 20260904162613 | 24 | 213 | 9.7 | 16.1 | 0.00 | 0.00 | 0.00 | 69 | 986.4 |
| 20260904162213 | 24 | 204 | 14.5 | 22.5 | 0.00 | 0.00 | 0.00 | 69 | 986.4 |
| 20260904161813 | 24 | 208 | 9.7 | 16.1 | 0.00 | 0.00 | 0.00 | 68 | 986.4 |
| 20260904161404 | 25 | 202 | 11.3 | 19.3 | 0.00 | 0.00 | 0.00 | 68 | 986.4 |
| 20260904161003 | 25 | 208 | 9.7 | 20.9 | 0.00 | 0.00 | 0.00 | 68 | 986.5 |
| 20260904160602 | 25 | 204 | 11.3 | 20.9 | 0.00 | 0.00 | 0.00 | 67 | 986.5 |
| 20260904160159 | 25 | 214 | 14.5 | 19.3 | 0.00 | 0.00 | 0.00 | 66 | 986.6 |
| 20260904155759 | 25 | 207 | 12.9 | 17.7 | 0.00 | 0.00 | 0.00 | 66 | 986.7 |
| 20260904155357 | 25 | 210 | 9.7 | 19.3 | 0.00 | 0.00 | 0.00 | 65 | 986.7 |
| 20260904154957 | 25 | 207 | 12.9 | 20.9 | 0.00 | 0.00 | 0.00 | 65 | 986.7 |
| 20260904154556 | 25 | 203 | 16.1 | 22.5 | 0.00 | 0.00 | 0.00 | 65 | 986.7 |
| 20260904154156 | 25 | 204 | 16.1 | 20.9 | 0.00 | 0.00 | 0.00 | 66 | 986.8 |
| 20260904153756 | 25 | 212 | 12.9 | 22.5 | 0.00 | 0.00 | 0.00 | 66 | 986.9 |
| 20260904153354 | 25 | 207 | 14.5 | 24.1 | 0.00 | 0.00 | 0.00 | 66 | 986.9 |
| 20260904152954 | 25 | 214 | 16.1 | 27.4 | 0.00 | 0.00 | 0.00 | 66 | 986.9 |
| 20260904152555 | 25 | 217 | 16.1 | 29.0 | 0.00 | 0.00 | 0.00 | 66 | 987.0 |
| 20260904152154 | 25 | 204 | 12.9 | 17.7 | 0.00 | 0.00 | 0.00 | 67 | 987.0 |